createdAt,value
2022-08-14T00:00:06.856Z,70.75
2022-08-14T00:05:16.509Z,70.92
2022-08-14T00:10:50.377Z,70.65
2022-08-14T00:15:48.259Z,70.94
2022-08-14T00:20:51.879Z,71.33
2022-08-14T00:26:05.871Z,71.17
2022-08-14T00:31:09.850Z,71.12
2022-08-14T00:36:37.694Z,71.30
2022-08-14T00:41:39.189Z,71.22
2022-08-14T00:46:42.285Z,71.63
2022-08-14T00:51:45.546Z,71.53
2022-08-14T00:56:55.578Z,71.90
2022-08-14T01:02:01.543Z,71.92
2022-08-14T01:07:04.967Z,71.89
2022-08-14T01:12:13.362Z,71.86
2022-08-14T01:17:49.274Z,72.35
2022-08-14T01:22:55.002Z,72.32
2022-08-14T01:27:58.774Z,72.30
2022-08-14T01:33:02.897Z,72.64
2022-08-14T01:38:07.530Z,72.39
2022-08-14T01:43:15.715Z,72.62
2022-08-14T01:48:20.757Z,72.71
2022-08-14T01:53:25.608Z,73.04
2022-08-14T01:58:35.570Z,73.02
2022-08-14T02:03:58.820Z,73.14
2022-08-14T02:09:04.338Z,73.15
2022-08-14T02:14:31.141Z,73.03
2022-08-14T02:19:35.743Z,73.27
2022-08-14T02:24:45.238Z,73.71
2022-08-14T02:29:59.191Z,73.81
2022-08-14T02:35:06.855Z,73.81
2022-08-14T02:40:12.641Z,73.97
2022-08-14T02:45:15.506Z,73.84
2022-08-14T02:50:21.236Z,73.98
2022-08-14T02:55:33.009Z,74.01
2022-08-14T03:00:40.103Z,74.24
2022-08-14T03:05:43.311Z,73.99
2022-08-14T03:10:48.598Z,74.02
2022-08-14T03:15:55.833Z,74.07
2022-08-14T03:21:01.053Z,74.21
2022-08-14T03:26:07.124Z,74.25
2022-08-14T03:31:13.374Z,74.23
2022-08-14T03:37:51.892Z,74.30
2022-08-14T03:41:42.139Z,74.46
2022-08-14T03:46:54.585Z,74.29
2022-08-14T03:52:00.865Z,74.31
2022-08-14T03:57:06.031Z,74.85
2022-08-14T04:02:09.584Z,75.76
2022-08-14T04:07:32.907Z,75.87
2022-08-14T04:12:40.412Z,75.36
2022-08-14T04:17:43.895Z,74.86
2022-08-14T04:22:51.123Z,74.72
2022-08-14T04:28:02.211Z,74.72
2022-08-14T04:33:13.597Z,74.91
2022-08-14T04:38:40.695Z,75.17
2022-08-14T04:43:45.191Z,75.14
2022-08-14T04:48:51.401Z,74.85
2022-08-14T04:54:03.146Z,74.55
2022-08-14T04:59:10.261Z,74.55
2022-08-14T05:04:14.578Z,74.64
2022-08-14T05:09:23.602Z,74.56
2022-08-14T05:14:46.353Z,74.48
2022-08-14T05:21:04.310Z,74.55
2022-08-14T05:25:13.978Z,74.51
2022-08-14T05:30:20.015Z,74.51
2022-08-14T05:35:22.843Z,74.08
2022-08-14T05:40:26.918Z,73.98
2022-08-14T05:45:31.055Z,73.97
2022-08-14T05:50:35.018Z,73.71
2022-08-14T05:55:42.794Z,73.67
2022-08-14T06:00:49.920Z,73.80
2022-08-14T06:05:54.060Z,73.58
2022-08-14T06:11:02.999Z,73.06
2022-08-14T06:16:07.988Z,72.85
2022-08-14T06:21:13.573Z,72.81
2022-08-14T06:26:16.477Z,72.75
2022-08-14T06:31:25.037Z,72.10
2022-08-14T06:36:27.735Z,72.13
2022-08-14T06:41:35.975Z,72.08
2022-08-14T06:46:54.896Z,71.77
2022-08-14T06:51:57.679Z,71.21
2022-08-14T06:57:00.408Z,71.03
2022-08-14T07:02:22.082Z,71.04
2022-08-14T07:07:25.497Z,70.72
2022-08-14T07:12:52.231Z,70.37
2022-08-14T07:17:55.652Z,70.58
2022-08-14T07:23:07.718Z,70.20
2022-08-14T07:28:20.830Z,69.92
2022-08-14T07:33:29.151Z,69.94
2022-08-14T07:38:37.952Z,69.90
2022-08-14T07:48:48.371Z,69.17
2022-08-14T07:53:56.782Z,68.99
2022-08-14T07:59:00.152Z,68.65
2022-08-14T08:04:09.162Z,68.42
2022-08-14T08:09:20.534Z,68.36
2022-08-14T08:14:26.075Z,67.55
2022-08-14T08:19:36.888Z,67.46
2022-08-14T08:24:43.249Z,67.30
2022-08-14T08:29:50.839Z,66.94
2022-08-14T08:34:55.283Z,66.96
2022-08-14T08:40:01.515Z,66.46
2022-08-14T08:45:05.391Z,65.81
2022-08-14T08:50:31.453Z,65.69
2022-08-14T08:55:35.532Z,65.90
2022-08-14T09:00:40.940Z,65.13
2022-08-14T09:05:57.788Z,64.54
2022-08-14T09:11:01.990Z,64.81
2022-08-14T09:16:18.515Z,64.21
2022-08-14T09:21:25.081Z,64.12
2022-08-14T09:26:34.893Z,62.82
2022-08-14T09:31:42.846Z,62.45
2022-08-14T09:37:24.658Z,62.22
2022-08-14T09:42:50.058Z,61.56
2022-08-14T09:47:56.084Z,61.31
2022-08-14T09:53:04.021Z,60.15
2022-08-14T09:58:19.476Z,59.81
2022-08-14T10:03:28.891Z,59.45
2022-08-14T10:08:42.053Z,58.94
2022-08-14T10:13:52.653Z,58.28
2022-08-14T10:19:07.242Z,57.73
2022-08-14T10:24:17.629Z,57.34
2022-08-14T10:29:32.409Z,56.73
2022-08-14T10:34:38.697Z,56.42
2022-08-14T10:40:01.714Z,55.77
2022-08-14T10:45:21.208Z,55.30
2022-08-14T10:50:35.791Z,55.05
2022-08-14T10:55:45.432Z,54.00
2022-08-14T11:00:56.870Z,53.06
2022-08-14T11:06:01.154Z,52.84
2022-08-14T11:11:07.090Z,51.96
2022-08-14T11:16:11.900Z,52.24
2022-08-14T11:21:19.045Z,51.22
2022-08-14T11:26:30.173Z,50.47
2022-08-14T11:31:38.714Z,49.73
2022-08-14T11:37:02.313Z,49.38
2022-08-14T11:42:57.422Z,50.09
2022-08-14T11:47:35.129Z,49.19
2022-08-14T11:52:50.667Z,48.01
2022-08-14T11:58:03.786Z,49.52
2022-08-14T12:03:09.481Z,48.14
2022-08-14T12:08:14.707Z,47.75
2022-08-14T12:13:32.250Z,47.98
2022-08-14T12:18:39.869Z,47.62
2022-08-14T12:23:42.702Z,45.58
2022-08-14T12:28:59.654Z,45.71
2022-08-14T12:34:10.160Z,46.18
2022-08-14T12:39:19.698Z,43.76
2022-08-14T12:44:32.296Z,42.05
2022-08-14T12:49:35.629Z,39.56
2022-08-14T12:54:43.581Z,38.52
2022-08-14T13:00:22.728Z,37.70
2022-08-14T13:05:29.053Z,37.73
2022-08-14T13:10:52.062Z,37.84
2022-08-14T13:15:57.596Z,37.09
2022-08-14T13:21:01.923Z,37.75
2022-08-14T13:26:05.479Z,39.42
2022-08-14T13:31:11.784Z,39.19
2022-08-14T13:36:24.550Z,39.62
2022-08-14T13:41:38.500Z,39.62
2022-08-14T13:46:44.405Z,40.13
2022-08-14T13:51:50.496Z,38.85
2022-08-14T13:56:55.898Z,39.31
2022-08-14T14:02:06.003Z,40.96
2022-08-14T14:07:13.214Z,41.39
2022-08-14T14:12:37.664Z,41.98
2022-08-14T14:17:44.040Z,42.11
2022-08-14T14:23:02.660Z,42.19
2022-08-14T14:28:06.110Z,41.75
2022-08-14T14:33:42.369Z,38.22
2022-08-14T14:38:42.136Z,34.38
2022-08-14T14:43:51.651Z,32.63
2022-08-14T14:48:56.323Z,32.49
2022-08-14T14:53:59.271Z,30.26
2022-08-14T14:59:02.411Z,32.42
2022-08-14T15:04:19.986Z,31.88
2022-08-14T15:09:24.019Z,33.87
2022-08-14T15:14:55.460Z,37.39
2022-08-14T15:19:56.242Z,39.87
2022-08-14T15:24:59.929Z,40.82
2022-08-14T15:30:04.086Z,40.89
2022-08-14T15:35:09.119Z,40.97
2022-08-14T15:40:22.186Z,40.72
2022-08-14T15:45:25.522Z,40.51
2022-08-14T15:50:31.438Z,40.78
2022-08-14T15:55:34.203Z,40.58
2022-08-14T16:00:55.160Z,39.88
2022-08-14T16:05:59.299Z,38.93
2022-08-14T16:11:04.729Z,39.59
2022-08-14T16:16:34.473Z,40.01
2022-08-14T16:21:37.547Z,38.77
2022-08-14T16:26:43.166Z,37.59
2022-08-14T16:31:54.572Z,38.53
2022-08-14T16:36:58.871Z,39.51
2022-08-14T16:42:01.906Z,39.99
2022-08-14T16:47:26.026Z,39.84
2022-08-14T16:52:44.295Z,38.74
2022-08-14T16:57:50.070Z,38.62
2022-08-14T17:03:00.886Z,38.90
2022-08-14T17:08:41.519Z,39.02
2022-08-14T17:13:57.784Z,39.35
2022-08-14T17:19:01.739Z,39.96
2022-08-14T17:24:58.365Z,40.28
2022-08-14T17:29:44.645Z,40.37
2022-08-14T17:35:01.930Z,40.55
2022-08-14T17:40:15.382Z,40.74
2022-08-14T17:45:27.042Z,41.14
2022-08-14T17:51:00.593Z,41.48
2022-08-14T17:56:06.021Z,41.84
2022-08-14T18:01:08.954Z,42.34
2022-08-14T18:06:38.334Z,42.79
2022-08-14T18:11:45.766Z,42.87
2022-08-14T18:16:51.953Z,43.47
2022-08-14T18:21:57.195Z,43.69
2022-08-14T18:27:09.093Z,43.41
2022-08-14T18:32:39.562Z,43.89
2022-08-14T18:37:55.719Z,44.40
2022-08-14T18:43:03.526Z,44.11
2022-08-14T18:48:33.214Z,44.39
2022-08-14T18:53:55.727Z,44.89
2022-08-14T18:59:00.306Z,45.31
2022-08-14T19:04:03.966Z,45.12
2022-08-14T19:09:07.423Z,45.23
2022-08-14T19:14:14.322Z,45.66
2022-08-14T19:19:19.201Z,45.71
2022-08-14T19:24:27.754Z,45.84
2022-08-14T19:29:37.920Z,46.06
2022-08-14T19:34:52.281Z,46.45
2022-08-14T19:39:56.712Z,46.95
2022-08-14T19:45:01.046Z,47.20
2022-08-14T19:50:08.022Z,47.51
2022-08-14T19:55:34.578Z,47.72
2022-08-14T20:00:52.123Z,48.24
2022-08-14T20:06:03.157Z,48.58
2022-08-14T20:12:00.575Z,48.96
2022-08-14T20:16:51.060Z,48.99
2022-08-14T20:22:04.621Z,49.41
2022-08-14T20:27:33.487Z,49.53
2022-08-14T20:32:41.031Z,50.03
2022-08-14T20:37:48.164Z,49.83
2022-08-14T20:43:20.432Z,50.58
2022-08-14T20:48:51.386Z,50.73
2022-08-14T20:53:59.478Z,50.90
2022-08-14T20:59:15.613Z,51.00
2022-08-14T21:04:29.191Z,51.22
2022-08-14T21:10:04.631Z,51.51
2022-08-14T21:14:55.607Z,51.95
2022-08-14T21:20:26.247Z,52.20
2022-08-14T21:25:26.006Z,52.39
2022-08-14T21:30:51.211Z,52.77
2022-08-14T21:36:00.561Z,52.79
2022-08-14T21:41:42.935Z,53.39
2022-08-14T21:46:47.794Z,53.81
2022-08-14T21:51:58.824Z,53.97
2022-08-14T21:57:13.651Z,53.94
2022-08-14T22:02:32.497Z,54.24
2022-08-14T22:07:38.882Z,54.38
2022-08-14T22:12:57.385Z,54.46
2022-08-14T22:18:04.100Z,54.59
2022-08-14T22:23:12.561Z,54.84
2022-08-14T22:28:21.601Z,55.04
2022-08-14T22:33:31.133Z,55.43
2022-08-14T22:38:38.965Z,55.63
2022-08-14T22:43:55.651Z,55.89
2022-08-14T22:48:59.002Z,56.15
2022-08-14T22:54:03.104Z,56.50
2022-08-14T22:59:09.832Z,56.71
2022-08-14T23:04:34.969Z,56.98
2022-08-14T23:09:56.275Z,57.01
2022-08-14T23:15:00.969Z,57.53
2022-08-14T23:20:18.526Z,57.33
2022-08-14T23:25:58.517Z,57.73
2022-08-14T23:30:49.877Z,57.99
2022-08-14T23:35:58.641Z,58.17
2022-08-14T23:41:14.490Z,58.44
2022-08-14T23:46:20.903Z,58.41
2022-08-14T23:51:23.627Z,58.38
2022-08-14T23:56:32.189Z,58.63
